sensor_id;sensor_type;location;lat;lon;timestamp;pressure;altitude;pressure_sealevel;temperature;humidity
7940;BME280;4015;48.888;9.226;2022-11-20T00:01:08;156802.78;;;6.19;94.27
7940;BME280;4015;48.888;9.226;2022-11-20T00:03:33;156770.94;;;6.06;94.97
7940;BME280;4015;48.888;9.226;2022-11-20T00:06:00;156765.84;;;6.04;95.28
7940;BME280;4015;48.888;9.226;2022-11-20T00:08:26;156746.72;;;5.97;95.67
7940;BME280;4015;48.888;9.226;2022-11-20T00:10:51;156741.63;;;5.94;96.44
7940;BME280;4015;48.888;9.226;2022-11-20T00:13:16;156782.41;;;6.11;94.83
7940;BME280;4015;48.888;9.226;2022-11-20T00:15:42;156750.56;;;5.98;95.23
7940;BME280;4015;48.888;9.226;2022-11-20T00:18:07;156749.31;;;5.98;96.02
7940;BME280;4015;48.888;9.226;2022-11-20T00:20:33;156746.72;;;5.97;95.92
7940;BME280;4015;48.888;9.226;2022-11-20T00:22:58;156726.31;;;5.88;96.38
7940;BME280;4015;48.888;9.226;2022-11-20T00:25:24;156750.56;;;5.98;97.35
7940;BME280;4015;48.888;9.226;2022-11-20T00:27:50;156769.66;;;6.06;96.81
7940;BME280;4015;48.888;9.226;2022-11-20T00:30:15;156781.13;;;6.10;96.71
7940;BME280;4015;48.888;9.226;2022-11-20T00:32:40;156772.19;;;6.07;96.83
7940;BME280;4015;48.888;9.226;2022-11-20T00:35:06;156753.09;;;5.99;97.12
7940;BME280;4015;48.888;9.226;2022-11-20T00:37:31;156759.47;;;6.02;97.38
7940;BME280;4015;48.888;9.226;2022-11-20T00:39:57;156731.38;;;5.90;97.23
7940;BME280;4015;48.888;9.226;2022-11-20T00:42:22;156736.56;;;5.92;97.43
7940;BME280;4015;48.888;9.226;2022-11-20T00:44:48;156754.38;;;6.00;97.69
7940;BME280;4015;48.888;9.226;2022-11-20T00:47:13;156755.66;;;6.00;97.67
7940;BME280;4015;48.888;9.226;2022-11-20T00:49:38;156768.41;;;6.05;97.63
7940;BME280;4015;48.888;9.226;2022-11-20T00:52:04;156788.75;;;6.13;97.70
7940;BME280;4015;48.888;9.226;2022-11-20T00:54:29;156797.69;;;6.17;97.22
7940;BME280;4015;48.888;9.226;2022-11-20T00:56:54;156745.44;;;5.96;97.22
7940;BME280;4015;48.888;9.226;2022-11-20T00:59:20;156728.84;;;5.89;97.76
7940;BME280;4015;48.888;9.226;2022-11-20T01:01:45;156711.03;;;5.82;98.33
7940;BME280;4015;48.888;9.226;2022-11-20T01:04:11;156750.56;;;5.98;98.41
7940;BME280;4015;48.888;9.226;2022-11-20T01:06:38;156744.19;;;5.95;98.19
7940;BME280;4015;48.888;9.226;2022-11-20T01:09:12;156764.59;;;6.04;98.54
7940;BME280;4015;48.888;9.226;2022-11-20T01:11:40;156788.75;;;6.13;98.20
7940;BME280;4015;48.888;9.226;2022-11-20T01:14:10;156791.28;;;6.14;98.12
7940;BME280;4015;48.888;9.226;2022-11-20T01:16:38;156770.94;;;6.06;97.62
7940;BME280;4015;48.888;9.226;2022-11-20T01:19:06;156782.41;;;6.11;97.73
7940;BME280;4015;48.888;9.226;2022-11-20T01:21:35;156788.75;;;6.13;97.83
7940;BME280;4015;48.888;9.226;2022-11-20T01:24:02;156810.38;;;6.22;97.57
7940;BME280;4015;48.888;9.226;2022-11-20T01:26:29;156801.50;;;6.18;96.88
7940;BME280;4015;48.888;9.226;2022-11-20T01:28:56;156797.69;;;6.17;97.11
7940;BME280;4015;48.888;9.226;2022-11-20T01:31:27;156776.00;;;6.08;96.97
7940;BME280;4015;48.888;9.226;2022-11-20T01:33:55;156741.63;;;5.94;97.61
7940;BME280;4015;48.888;9.226;2022-11-20T01:36:25;156754.38;;;6.00;97.88
7940;BME280;4015;48.888;9.226;2022-11-20T01:38:55;156768.41;;;6.05;97.39
7940;BME280;4015;48.888;9.226;2022-11-20T01:41:21;156777.28;;;6.09;97.14
7940;BME280;4015;48.888;9.226;2022-11-20T01:44:06;156754.38;;;6.00;97.64
7940;BME280;4015;48.888;9.226;2022-11-20T01:47:02;156742.91;;;5.95;98.04
7940;BME280;4015;48.888;9.226;2022-11-20T01:49:42;156760.72;;;6.02;97.94
7940;BME280;4015;48.888;9.226;2022-11-20T01:52:23;156758.19;;;6.01;97.75
7940;BME280;4015;48.888;9.226;2022-11-20T01:54:58;156788.75;;;6.13;97.72
7940;BME280;4015;48.888;9.226;2022-11-20T01:57:28;156768.41;;;6.05;97.61
7940;BME280;4015;48.888;9.226;2022-11-20T02:00:00;156741.63;;;5.94;98.23
7940;BME280;4015;48.888;9.226;2022-11-20T02:02:27;156779.88;;;6.10;97.97
7940;BME280;4015;48.888;9.226;2022-11-20T02:04:54;156778.56;;;6.09;97.76
7940;BME280;4015;48.888;9.226;2022-11-20T02:07:23;156768.41;;;6.05;97.98
7940;BME280;4015;48.888;9.226;2022-11-20T02:09:48;156758.19;;;6.01;98.04
7940;BME280;4015;48.888;9.226;2022-11-20T02:12:14;156781.13;;;6.10;97.91
7940;BME280;4015;48.888;9.226;2022-11-20T02:14:59;156741.63;;;5.94;98.08
7940;BME280;4015;48.888;9.226;2022-11-20T02:17:25;156722.50;;;5.87;98.43
7940;BME280;4015;48.888;9.226;2022-11-20T02:19:50;156759.47;;;6.02;98.33
7940;BME280;4015;48.888;9.226;2022-11-20T02:22:26;156751.84;;;5.99;98.04
7940;BME280;4015;48.888;9.226;2022-11-20T02:24:52;156746.72;;;5.97;98.68
7940;BME280;4015;48.888;9.226;2022-11-20T02:27:18;156783.69;;;6.11;98.47
7940;BME280;4015;48.888;9.226;2022-11-20T02:29:51;156812.97;;;6.23;98.09
7940;BME280;4015;48.888;9.226;2022-11-20T02:34:47;156716.09;;;5.84;98.49
7940;BME280;4015;48.888;9.226;2022-11-20T02:37:13;156685.59;;;5.72;98.72
7940;BME280;4015;48.888;9.226;2022-11-20T02:39:40;156713.56;;;5.83;99.33
7940;BME280;4015;48.888;9.226;2022-11-20T02:42:06;156700.81;;;5.78;98.69
7940;BME280;4015;48.888;9.226;2022-11-20T02:44:31;156716.09;;;5.84;98.60
7940;BME280;4015;48.888;9.226;2022-11-20T02:46:57;156753.09;;;5.99;99.01
7940;BME280;4015;48.888;9.226;2022-11-20T02:49:23;156772.19;;;6.07;98.09
7940;BME280;4015;48.888;9.226;2022-11-20T02:51:49;156764.59;;;6.04;98.06
7940;BME280;4015;48.888;9.226;2022-11-20T02:54:14;156764.59;;;6.04;98.04
7940;BME280;4015;48.888;9.226;2022-11-20T02:56:40;156770.94;;;6.06;97.29
7940;BME280;4015;48.888;9.226;2022-11-20T02:59:05;156756.91;;;6.01;97.00
7940;BME280;4015;48.888;9.226;2022-11-20T03:01:31;156760.72;;;6.02;97.13
7940;BME280;4015;48.888;9.226;2022-11-20T03:03:56;156713.56;;;5.83;97.83
7940;BME280;4015;48.888;9.226;2022-11-20T03:06:21;156754.38;;;6.00;97.10
7940;BME280;4015;48.888;9.226;2022-11-20T03:08:47;156744.19;;;5.95;96.77
7940;BME280;4015;48.888;9.226;2022-11-20T03:11:12;156788.75;;;6.13;96.72
7940;BME280;4015;48.888;9.226;2022-11-20T03:13:38;156790.03;;;6.14;96.41
7940;BME280;4015;48.888;9.226;2022-11-20T03:16:17;156800.22;;;6.18;96.14
7940;BME280;4015;48.888;9.226;2022-11-20T03:18:43;156784.94;;;6.12;95.81
7940;BME280;4015;48.888;9.226;2022-11-20T03:21:10;156782.41;;;6.11;96.35
7940;BME280;4015;48.888;9.226;2022-11-20T03:23:36;156754.38;;;6.00;95.88
7940;BME280;4015;48.888;9.226;2022-11-20T03:28:38;156739.09;;;5.93;95.70
7940;BME280;4015;48.888;9.226;2022-11-20T03:31:12;156755.66;;;6.00;95.65
7940;BME280;4015;48.888;9.226;2022-11-20T03:33:39;156723.78;;;5.87;95.58
7940;BME280;4015;48.888;9.226;2022-11-20T03:36:07;156723.78;;;5.87;95.80
7940;BME280;4015;48.888;9.226;2022-11-20T03:38:33;156762.00;;;6.03;94.89
7940;BME280;4015;48.888;9.226;2022-11-20T03:41:24;156772.19;;;6.07;94.23
7940;BME280;4015;48.888;9.226;2022-11-20T03:46:14;156768.41;;;6.05;93.73
7940;BME280;4015;48.888;9.226;2022-11-20T03:48:39;156783.69;;;6.11;93.70
7940;BME280;4015;48.888;9.226;2022-11-20T03:51:25;156782.41;;;6.11;94.13
7940;BME280;4015;48.888;9.226;2022-11-20T03:53:53;156806.59;;;6.20;93.93
7940;BME280;4015;48.888;9.226;2022-11-20T03:56:22;156804.03;;;6.19;93.22
7940;BME280;4015;48.888;9.226;2022-11-20T03:58:48;156811.72;;;6.22;93.33
7940;BME280;4015;48.888;9.226;2022-11-20T04:01:18;156795.09;;;6.16;93.92
7940;BME280;4015;48.888;9.226;2022-11-20T04:03:45;156800.22;;;6.18;94.02
7940;BME280;4015;48.888;9.226;2022-11-20T04:08:40;156807.84;;;6.21;93.61
7940;BME280;4015;48.888;9.226;2022-11-20T04:11:13;156828.25;;;6.29;93.21
7940;BME280;4015;48.888;9.226;2022-11-20T04:13:39;156832.06;;;6.31;92.66
7940;BME280;4015;48.888;9.226;2022-11-20T04:16:06;156835.88;;;6.32;92.70
7940;BME280;4015;48.888;9.226;2022-11-20T04:18:32;156838.44;;;6.33;92.70
7940;BME280;4015;48.888;9.226;2022-11-20T04:20:58;156827.00;;;6.29;92.73
7940;BME280;4015;48.888;9.226;2022-11-20T04:23:24;156848.63;;;6.37;91.96
7940;BME280;4015;48.888;9.226;2022-11-20T04:25:49;156860.09;;;6.42;91.87
7940;BME280;4015;48.888;9.226;2022-11-20T04:28:14;156839.69;;;6.34;91.53
7940;BME280;4015;48.888;9.226;2022-11-20T04:30:40;156846.09;;;6.36;91.93
7940;BME280;4015;48.888;9.226;2022-11-20T04:33:06;156840.97;;;6.34;91.44
7940;BME280;4015;48.888;9.226;2022-11-20T04:35:35;156832.06;;;6.31;91.36
7940;BME280;4015;48.888;9.226;2022-11-20T04:38:01;156849.91;;;6.38;92.36
7940;BME280;4015;48.888;9.226;2022-11-20T04:40:27;156830.81;;;6.30;92.01
7940;BME280;4015;48.888;9.226;2022-11-20T04:42:54;156825.69;;;6.28;91.76
7940;BME280;4015;48.888;9.226;2022-11-20T04:45:19;156795.09;;;6.16;92.76
7940;BME280;4015;48.888;9.226;2022-11-20T04:47:44;156821.88;;;6.27;93.35
7940;BME280;4015;48.888;9.226;2022-11-20T04:50:11;156783.69;;;6.11;92.14
7940;BME280;4015;48.888;9.226;2022-11-20T04:52:36;156809.13;;;6.21;92.31
7940;BME280;4015;48.888;9.226;2022-11-20T04:55:02;156790.03;;;6.14;92.27
7940;BME280;4015;48.888;9.226;2022-11-20T04:57:27;156783.69;;;6.11;92.11
7940;BME280;4015;48.888;9.226;2022-11-20T04:59:53;156759.47;;;6.02;92.76
7940;BME280;4015;48.888;9.226;2022-11-20T05:02:18;156788.75;;;6.13;93.00
7940;BME280;4015;48.888;9.226;2022-11-20T05:04:43;156786.22;;;6.12;92.76
7940;BME280;4015;48.888;9.226;2022-11-20T05:07:09;156816.78;;;6.25;92.38
7940;BME280;4015;48.888;9.226;2022-11-20T05:09:34;156847.38;;;6.37;92.13
7940;BME280;4015;48.888;9.226;2022-11-20T05:11:59;156829.53;;;6.30;90.98
7940;BME280;4015;48.888;9.226;2022-11-20T05:14:25;156854.97;;;6.40;91.76
7940;BME280;4015;48.888;9.226;2022-11-20T05:16:50;156835.88;;;6.32;91.28
7940;BME280;4015;48.888;9.226;2022-11-20T05:19:15;156849.91;;;6.38;91.85
7940;BME280;4015;48.888;9.226;2022-11-20T05:21:41;156837.16;;;6.33;91.22
7940;BME280;4015;48.888;9.226;2022-11-20T05:24:06;156810.38;;;6.22;91.87
7940;BME280;4015;48.888;9.226;2022-11-20T05:26:32;156818.06;;;6.25;91.96
7940;BME280;4015;48.888;9.226;2022-11-20T05:28:57;156788.75;;;6.13;92.01
7940;BME280;4015;48.888;9.226;2022-11-20T05:31:24;156772.19;;;6.07;92.07
7940;BME280;4015;48.888;9.226;2022-11-20T05:33:50;156754.38;;;6.00;92.75
7940;BME280;4015;48.888;9.226;2022-11-20T05:36:16;156765.84;;;6.04;92.81
7940;BME280;4015;48.888;9.226;2022-11-20T05:38:42;156788.75;;;6.13;92.19
7940;BME280;4015;48.888;9.226;2022-11-20T05:41:13;156779.88;;;6.10;92.41
7940;BME280;4015;48.888;9.226;2022-11-20T05:43:41;156784.94;;;6.12;92.65
7940;BME280;4015;48.888;9.226;2022-11-20T05:46:07;156786.22;;;6.12;93.00
7940;BME280;4015;48.888;9.226;2022-11-20T05:48:34;156764.59;;;6.04;93.56
7940;BME280;4015;48.888;9.226;2022-11-20T05:51:01;156782.41;;;6.11;93.16
7940;BME280;4015;48.888;9.226;2022-11-20T05:53:27;156812.97;;;6.23;93.32
7940;BME280;4015;48.888;9.226;2022-11-20T05:55:59;156801.50;;;6.18;92.47
7940;BME280;4015;48.888;9.226;2022-11-20T05:58:25;156815.53;;;6.24;92.83
7940;BME280;4015;48.888;9.226;2022-11-20T06:00:51;156800.22;;;6.18;93.37
7940;BME280;4015;48.888;9.226;2022-11-20T06:03:16;156800.22;;;6.18;92.04
7940;BME280;4015;48.888;9.226;2022-11-20T06:05:42;156821.88;;;6.27;92.69
7940;BME280;4015;48.888;9.226;2022-11-20T06:08:07;156769.66;;;6.06;92.35
7940;BME280;4015;48.888;9.226;2022-11-20T06:10:33;156781.13;;;6.10;92.41
7940;BME280;4015;48.888;9.226;2022-11-20T06:12:59;156790.03;;;6.14;92.86
7940;BME280;4015;48.888;9.226;2022-11-20T06:15:24;156805.31;;;6.20;92.70
7940;BME280;4015;48.888;9.226;2022-11-20T06:17:53;156796.44;;;6.16;92.60
7940;BME280;4015;48.888;9.226;2022-11-20T06:20:20;156818.06;;;6.25;92.51
7940;BME280;4015;48.888;9.226;2022-11-20T06:22:45;156823.13;;;6.27;92.36
7940;BME280;4015;48.888;9.226;2022-11-20T06:25:11;156879.22;;;6.49;92.01
7940;BME280;4015;48.888;9.226;2022-11-20T06:27:36;156854.97;;;6.40;91.78
7940;BME280;4015;48.888;9.226;2022-11-20T06:30:03;156842.22;;;6.35;92.00
7940;BME280;4015;48.888;9.226;2022-11-20T06:32:28;156825.69;;;6.28;91.96
7940;BME280;4015;48.888;9.226;2022-11-20T06:34:53;156833.34;;;6.31;91.89
7940;BME280;4015;48.888;9.226;2022-11-20T06:37:19;156851.16;;;6.38;92.15
7940;BME280;4015;48.888;9.226;2022-11-20T06:39:44;156877.94;;;6.49;91.66
7940;BME280;4015;48.888;9.226;2022-11-20T06:42:09;156883.03;;;6.51;91.72
7940;BME280;4015;48.888;9.226;2022-11-20T06:44:35;156908.50;;;6.61;91.89
7940;BME280;4015;48.888;9.226;2022-11-20T06:47:00;156875.41;;;6.48;91.35
7940;BME280;4015;48.888;9.226;2022-11-20T06:49:26;156893.22;;;6.55;91.42
7940;BME280;4015;48.888;9.226;2022-11-20T06:51:51;156857.53;;;6.41;91.79
7940;BME280;4015;48.888;9.226;2022-11-20T06:54:17;156861.38;;;6.42;91.46
7940;BME280;4015;48.888;9.226;2022-11-20T06:56:46;156840.97;;;6.34;91.38
7940;BME280;4015;48.888;9.226;2022-11-20T06:59:12;156852.44;;;6.39;91.40
7940;BME280;4015;48.888;9.226;2022-11-20T07:01:38;156847.38;;;6.37;91.81
7940;BME280;4015;48.888;9.226;2022-11-20T07:04:03;156867.72;;;6.45;91.35
7940;BME280;4015;48.888;9.226;2022-11-20T07:06:29;156928.88;;;6.69;91.00
7940;BME280;4015;48.888;9.226;2022-11-20T07:08:54;156902.13;;;6.59;90.08
7940;BME280;4015;48.888;9.226;2022-11-20T07:11:19;156872.81;;;6.47;90.41
7940;BME280;4015;48.888;9.226;2022-11-20T07:13:45;156889.38;;;6.54;90.67
7940;BME280;4015;48.888;9.226;2022-11-20T07:16:10;156904.66;;;6.60;91.06
7940;BME280;4015;48.888;9.226;2022-11-20T07:18:35;156945.44;;;6.76;90.73
7940;BME280;4015;48.888;9.226;2022-11-20T07:21:02;156942.91;;;6.75;90.19
7940;BME280;4015;48.888;9.226;2022-11-20T07:23:28;156979.84;;;6.90;90.00
7940;BME280;4015;48.888;9.226;2022-11-20T07:25:54;156986.25;;;6.92;89.94
7940;BME280;4015;48.888;9.226;2022-11-20T07:28:19;156982.38;;;6.91;90.20
7940;BME280;4015;48.888;9.226;2022-11-20T07:30:52;156979.84;;;6.90;90.20
7940;BME280;4015;48.888;9.226;2022-11-20T07:33:18;157023.19;;;7.07;90.24
7940;BME280;4015;48.888;9.226;2022-11-20T07:35:46;157015.56;;;7.04;88.58
7940;BME280;4015;48.888;9.226;2022-11-20T07:38:13;157027.00;;;7.09;89.79
7940;BME280;4015;48.888;9.226;2022-11-20T07:40:38;157007.88;;;7.01;89.57
7940;BME280;4015;48.888;9.226;2022-11-20T07:43:03;157056.31;;;7.20;90.45
7940;BME280;4015;48.888;9.226;2022-11-20T07:45:29;157085.63;;;7.32;91.34
7940;BME280;4015;48.888;9.226;2022-11-20T07:47:58;157062.72;;;7.23;90.27
7940;BME280;4015;48.888;9.226;2022-11-20T07:50:23;157094.56;;;7.36;90.79
7940;BME280;4015;48.888;9.226;2022-11-20T07:52:48;157088.19;;;7.33;91.36
7940;BME280;4015;48.888;9.226;2022-11-20T07:55:14;157117.50;;;7.45;90.52
7940;BME280;4015;48.888;9.226;2022-11-20T07:57:40;157122.59;;;7.47;90.86
7940;BME280;4015;48.888;9.226;2022-11-20T08:00:07;157123.84;;;7.47;91.15
7940;BME280;4015;48.888;9.226;2022-11-20T08:02:40;157149.38;;;7.57;91.17
7940;BME280;4015;48.888;9.226;2022-11-20T08:05:06;157121.31;;;7.46;89.05
7940;BME280;4015;48.888;9.226;2022-11-20T08:07:39;157134.06;;;7.51;90.00
7940;BME280;4015;48.888;9.226;2022-11-20T08:10:05;157121.31;;;7.46;89.94
7940;BME280;4015;48.888;9.226;2022-11-20T08:12:31;157163.41;;;7.63;91.07
7940;BME280;4015;48.888;9.226;2022-11-20T08:15:15;157154.44;;;7.60;89.77
7940;BME280;4015;48.888;9.226;2022-11-20T08:17:40;157164.66;;;7.64;90.83
7940;BME280;4015;48.888;9.226;2022-11-20T08:20:06;157165.94;;;7.64;89.74
7940;BME280;4015;48.888;9.226;2022-11-20T08:22:31;157191.47;;;7.74;88.62
7940;BME280;4015;48.888;9.226;2022-11-20T08:24:57;157260.28;;;8.02;87.20
7940;BME280;4015;48.888;9.226;2022-11-20T08:27:23;157320.25;;;8.26;88.74
7940;BME280;4015;48.888;9.226;2022-11-20T08:29:48;157290.91;;;8.14;86.96
7940;BME280;4015;48.888;9.226;2022-11-20T08:32:13;157242.44;;;7.95;86.23
7940;BME280;4015;48.888;9.226;2022-11-20T08:34:39;157302.41;;;8.19;87.25
7940;BME280;4015;48.888;9.226;2022-11-20T08:37:04;157275.59;;;8.08;87.72
7940;BME280;4015;48.888;9.226;2022-11-20T08:39:29;157327.88;;;8.29;86.06
7940;BME280;4015;48.888;9.226;2022-11-20T08:41:55;157336.81;;;8.32;86.68
7940;BME280;4015;48.888;9.226;2022-11-20T08:44:20;157340.63;;;8.34;86.28
7940;BME280;4015;48.888;9.226;2022-11-20T08:46:45;157330.47;;;8.30;87.52
7940;BME280;4015;48.888;9.226;2022-11-20T08:49:13;157318.97;;;8.25;87.99
7940;BME280;4015;48.888;9.226;2022-11-20T08:51:39;157307.47;;;8.21;88.13
7940;BME280;4015;48.888;9.226;2022-11-20T08:54:06;157316.44;;;8.24;87.21
7940;BME280;4015;48.888;9.226;2022-11-20T08:56:32;157284.53;;;8.11;87.49
7940;BME280;4015;48.888;9.226;2022-11-20T08:58:57;157275.59;;;8.08;88.97
7940;BME280;4015;48.888;9.226;2022-11-20T09:01:25;157276.88;;;8.08;87.19
7940;BME280;4015;48.888;9.226;2022-11-20T09:03:50;157292.16;;;8.15;87.76
7940;BME280;4015;48.888;9.226;2022-11-20T09:06:16;157311.28;;;8.22;86.48
7940;BME280;4015;48.888;9.226;2022-11-20T09:08:41;157327.88;;;8.29;86.87
7940;BME280;4015;48.888;9.226;2022-11-20T09:11:07;157290.91;;;8.14;87.16
7940;BME280;4015;48.888;9.226;2022-11-20T09:13:34;157278.13;;;8.09;86.88
7940;BME280;4015;48.888;9.226;2022-11-20T09:16:03;157260.28;;;8.02;87.33
7940;BME280;4015;48.888;9.226;2022-11-20T09:18:30;157261.56;;;8.02;90.13
7940;BME280;4015;48.888;9.226;2022-11-20T09:21:02;157250.06;;;7.98;89.13
7940;BME280;4015;48.888;9.226;2022-11-20T09:23:31;157224.59;;;7.88;89.10
7940;BME280;4015;48.888;9.226;2022-11-20T09:25:57;157233.50;;;7.91;89.46
7940;BME280;4015;48.888;9.226;2022-11-20T09:28:25;157202.91;;;7.79;89.02
7940;BME280;4015;48.888;9.226;2022-11-20T09:30:50;157223.31;;;7.87;88.88
7940;BME280;4015;48.888;9.226;2022-11-20T09:33:16;157225.88;;;7.88;89.36
7940;BME280;4015;48.888;9.226;2022-11-20T09:35:43;157230.97;;;7.90;89.27
7940;BME280;4015;48.888;9.226;2022-11-20T09:38:08;157255.22;;;8.00;88.82
7940;BME280;4015;48.888;9.226;2022-11-20T09:40:38;157250.06;;;7.98;88.65
7940;BME280;4015;48.888;9.226;2022-11-20T09:43:12;157238.63;;;7.93;88.71
7940;BME280;4015;48.888;9.226;2022-11-20T09:56:09;157289.63;;;8.14;87.55
7940;BME280;4015;48.888;9.226;2022-11-20T09:58:41;157278.13;;;8.09;87.06
7940;BME280;4015;48.888;9.226;2022-11-20T10:01:13;157280.69;;;8.10;87.92
7940;BME280;4015;48.888;9.226;2022-11-20T10:06:13;157279.41;;;8.09;88.62
7940;BME280;4015;48.888;9.226;2022-11-20T10:08:47;157321.50;;;8.26;88.67
7940;BME280;4015;48.888;9.226;2022-11-20T10:11:24;157333.00;;;8.31;88.31
7940;BME280;4015;48.888;9.226;2022-11-20T10:25:18;157318.97;;;8.25;89.40
7940;BME280;4015;48.888;9.226;2022-11-20T10:27:49;157299.84;;;8.18;89.68
7940;BME280;4015;48.888;9.226;2022-11-20T10:30:20;157246.25;;;7.96;89.92
7940;BME280;4015;48.888;9.226;2022-11-20T10:32:59;157243.72;;;7.95;91.25
7940;BME280;4015;48.888;9.226;2022-11-20T10:35:49;157262.84;;;8.03;91.48
7940;BME280;4015;48.888;9.226;2022-11-20T10:41:20;157274.31;;;8.07;90.36
7940;BME280;4015;48.888;9.226;2022-11-20T10:44:31;157274.31;;;8.07;89.03
7940;BME280;4015;48.888;9.226;2022-11-20T10:47:17;157293.44;;;8.15;88.87
7940;BME280;4015;48.888;9.226;2022-11-20T10:49:45;157267.97;;;8.05;90.00
7940;BME280;4015;48.888;9.226;2022-11-20T10:59:59;157132.78;;;7.51;95.32
7940;BME280;4015;48.888;9.226;2022-11-20T11:02:35;157132.78;;;7.51;95.00
7940;BME280;4015;48.888;9.226;2022-11-20T11:05:18;157104.75;;;7.40;95.08
7940;BME280;4015;48.888;9.226;2022-11-20T11:07:50;157097.13;;;7.37;95.90
7940;BME280;4015;48.888;9.226;2022-11-20T11:12:46;157145.56;;;7.56;96.16
7940;BME280;4015;48.888;9.226;2022-11-20T11:17:54;157188.91;;;7.73;94.67
7940;BME280;4015;48.888;9.226;2022-11-20T11:20:21;157208.03;;;7.81;94.29
7940;BME280;4015;48.888;9.226;2022-11-20T11:22:53;157265.38;;;8.04;94.04
7940;BME280;4015;48.888;9.226;2022-11-20T11:27:49;157399.38;;;8.57;92.29
7940;BME280;4015;48.888;9.226;2022-11-20T11:30:17;157428.72;;;8.69;91.85
7940;BME280;4015;48.888;9.226;2022-11-20T11:32:43;157469.53;;;8.85;90.09
7940;BME280;4015;48.888;9.226;2022-11-20T11:35:22;157524.41;;;9.07;88.36
7940;BME280;4015;48.888;9.226;2022-11-20T11:37:48;157571.63;;;9.26;85.76
7940;BME280;4015;48.888;9.226;2022-11-20T11:40:15;157640.53;;;9.54;87.75
7940;BME280;4015;48.888;9.226;2022-11-20T11:42:49;157648.22;;;9.57;86.78
7940;BME280;4015;48.888;9.226;2022-11-20T11:45:16;157695.47;;;9.76;86.12
7940;BME280;4015;48.888;9.226;2022-11-20T11:55:54;157649.50;;;9.57;82.94
7940;BME280;4015;48.888;9.226;2022-11-20T11:58:28;157708.25;;;9.81;80.37
7940;BME280;4015;48.888;9.226;2022-11-20T12:01:16;157754.16;;;9.99;80.54
7940;BME280;4015;48.888;9.226;2022-11-20T12:04:14;157829.56;;;10.29;79.23
7940;BME280;4015;48.888;9.226;2022-11-20T12:06:36;157793.78;;;10.15;79.83
7940;BME280;4015;48.888;9.226;2022-11-20T12:09:08;157750.34;;;9.97;79.63
7940;BME280;4015;48.888;9.226;2022-11-20T12:11:54;157705.66;;;9.80;80.47
7940;BME280;4015;48.888;9.226;2022-11-20T12:14:41;157720.97;;;9.86;79.09
7940;BME280;4015;48.888;9.226;2022-11-20T12:17:12;157765.66;;;10.04;78.07
7940;BME280;4015;48.888;9.226;2022-11-20T12:19:37;157885.78;;;10.51;77.22
7940;BME280;4015;48.888;9.226;2022-11-20T12:25:02;158090.22;;;11.33;72.87
7940;BME280;4015;48.888;9.226;2022-11-20T12:30:24;158076.16;;;11.27;72.33
7940;BME280;4015;48.888;9.226;2022-11-20T12:32:54;157987.97;;;10.92;73.67
7940;BME280;4015;48.888;9.226;2022-11-20T12:47:47;157820.66;;;10.25;74.63
7940;BME280;4015;48.888;9.226;2022-11-20T12:50:39;157839.78;;;10.33;73.95
7940;BME280;4015;48.888;9.226;2022-11-20T12:53:11;157856.41;;;10.40;73.28
7940;BME280;4015;48.888;9.226;2022-11-20T12:56:18;157839.78;;;10.33;71.89
7940;BME280;4015;48.888;9.226;2022-11-20T13:01:40;157958.56;;;10.80;70.88
7940;BME280;4015;48.888;9.226;2022-11-20T13:06:44;157999.47;;;10.97;69.57
7940;BME280;4015;48.888;9.226;2022-11-20T13:09:13;158031.41;;;11.10;69.21
7940;BME280;4015;48.888;9.226;2022-11-20T13:12:10;158083.78;;;11.30;69.73
7940;BME280;4015;48.888;9.226;2022-11-20T13:14:59;158002.03;;;10.98;67.51
7940;BME280;4015;48.888;9.226;2022-11-20T13:17:50;157850.03;;;10.37;68.76
7940;BME280;4015;48.888;9.226;2022-11-20T13:20:19;157787.41;;;10.12;69.74
7940;BME280;4015;48.888;9.226;2022-11-20T13:22:52;157752.88;;;9.98;71.58
7940;BME280;4015;48.888;9.226;2022-11-20T13:25:28;157798.88;;;10.17;71.03
7940;BME280;4015;48.888;9.226;2022-11-20T13:27:55;157832.09;;;10.30;70.21
7940;BME280;4015;48.888;9.226;2022-11-20T13:30:23;157887.06;;;10.52;68.89
7940;BME280;4015;48.888;9.226;2022-11-20T13:33:21;157922.81;;;10.66;69.52
7940;BME280;4015;48.888;9.226;2022-11-20T13:35:57;157888.34;;;10.52;68.63
7940;BME280;4015;48.888;9.226;2022-11-20T13:38:23;157885.78;;;10.51;67.81
7940;BME280;4015;48.888;9.226;2022-11-20T13:40:53;157852.56;;;10.38;69.08
7940;BME280;4015;48.888;9.226;2022-11-20T13:43:33;157898.56;;;10.57;67.99
7940;BME280;4015;48.888;9.226;2022-11-20T13:46:05;157866.63;;;10.44;68.65
7940;BME280;4015;48.888;9.226;2022-11-20T13:48:51;157867.91;;;10.44;69.20
7940;BME280;4015;48.888;9.226;2022-11-20T13:51:30;157839.78;;;10.33;67.60
7940;BME280;4015;48.888;9.226;2022-11-20T13:57:01;157727.38;;;9.88;69.92
7940;BME280;4015;48.888;9.226;2022-11-20T14:00:01;157664.81;;;9.63;68.67
7940;BME280;4015;48.888;9.226;2022-11-20T14:02:29;157639.28;;;9.53;70.95
7940;BME280;4015;48.888;9.226;2022-11-20T14:04:58;157668.63;;;9.65;71.30
7940;BME280;4015;48.888;9.226;2022-11-20T14:07:26;157690.31;;;9.73;70.74
7940;BME280;4015;48.888;9.226;2022-11-20T14:09:57;157669.91;;;9.65;70.05
7940;BME280;4015;48.888;9.226;2022-11-20T14:12:28;157689.06;;;9.73;71.81
7940;BME280;4015;48.888;9.226;2022-11-20T14:14:54;157709.50;;;9.81;71.25
7940;BME280;4015;48.888;9.226;2022-11-20T14:17:32;157722.25;;;9.86;72.19
7940;BME280;4015;48.888;9.226;2022-11-20T14:20:04;157712.06;;;9.82;72.05
7940;BME280;4015;48.888;9.226;2022-11-20T14:22:30;157699.28;;;9.77;71.61
7940;BME280;4015;48.888;9.226;2022-11-20T14:25:06;157680.13;;;9.69;73.13
7940;BME280;4015;48.888;9.226;2022-11-20T14:27:37;157671.19;;;9.66;72.32
7940;BME280;4015;48.888;9.226;2022-11-20T14:30:04;157690.31;;;9.73;72.84
7940;BME280;4015;48.888;9.226;2022-11-20T14:32:31;157672.47;;;9.66;74.20
7940;BME280;4015;48.888;9.226;2022-11-20T14:35:02;157598.47;;;9.37;72.23
7940;BME280;4015;48.888;9.226;2022-11-20T14:37:36;157489.97;;;8.94;73.52
7940;BME280;4015;48.888;9.226;2022-11-20T14:40:02;157491.25;;;8.94;73.74
7940;BME280;4015;48.888;9.226;2022-11-20T14:42:29;157474.66;;;8.87;74.15
7940;BME280;4015;48.888;9.226;2022-11-20T14:44:59;157484.84;;;8.91;74.36
7940;BME280;4015;48.888;9.226;2022-11-20T14:47:27;157511.66;;;9.02;75.73
7940;BME280;4015;48.888;9.226;2022-11-20T14:49:55;157438.91;;;8.73;74.76
7940;BME280;4015;48.888;9.226;2022-11-20T14:52:26;157473.38;;;8.87;74.75
7940;BME280;4015;48.888;9.226;2022-11-20T14:54:58;157396.84;;;8.56;75.49
7940;BME280;4015;48.888;9.226;2022-11-20T14:57:36;157390.41;;;8.54;76.15